createdAt,value
2022-09-10T00:01:22.102Z,1.30
2022-09-10T00:03:50.115Z,1.05
2022-09-10T00:06:18.764Z,1.08
2022-09-10T00:08:46.573Z,1.50
2022-09-10T00:11:15.095Z,1.50
2022-09-10T00:13:42.661Z,1.38
2022-09-10T00:16:11.829Z,1.25
2022-09-10T00:18:40.395Z,1.05
2022-09-10T00:21:10.340Z,1.55
2022-09-10T00:23:37.358Z,1.45
2022-09-10T00:26:16.960Z,1.08
2022-09-10T00:28:44.055Z,1.08
2022-09-10T00:31:11.341Z,0.85
2022-09-10T00:33:37.909Z,1.20
2022-09-10T00:36:06.012Z,0.88
2022-09-10T00:38:32.740Z,1.23
2022-09-10T00:41:04.899Z,1.10
2022-09-10T00:43:51.180Z,0.70
2022-09-10T00:46:43.586Z,1.35
2022-09-10T00:49:17.784Z,1.60
2022-09-10T00:51:44.611Z,0.98
2022-09-10T00:54:11.873Z,1.27
2022-09-10T00:56:39.154Z,1.05
2022-09-10T00:59:08.231Z,1.42
2022-09-10T01:01:35.563Z,1.10
2022-09-10T01:04:03.807Z,1.75
2022-09-10T01:06:30.449Z,1.15
2022-09-10T01:08:57.303Z,1.50
2022-09-10T01:11:42.520Z,1.20
2022-09-10T01:14:28.039Z,1.02
2022-09-10T01:17:00.066Z,1.80
2022-09-10T01:19:48.185Z,1.75
2022-09-10T01:22:14.656Z,1.58
2022-09-10T01:24:54.686Z,1.92
2022-09-10T01:27:39.594Z,1.20
2022-09-10T01:30:14.697Z,1.27
2022-09-10T01:32:53.256Z,1.38
2022-09-10T01:35:24.093Z,1.40
2022-09-10T01:37:57.487Z,1.27
2022-09-10T01:40:29.733Z,1.52
2022-09-10T01:43:02.541Z,1.20
2022-09-10T01:45:29.867Z,1.00
2022-09-10T01:48:10.823Z,2.00
2022-09-10T01:50:46.338Z,1.10
2022-09-10T01:53:22.887Z,0.90
2022-09-10T01:56:09.622Z,1.25
2022-09-10T01:58:38.895Z,1.35
2022-09-10T02:01:14.779Z,1.85
2022-09-10T02:03:43.730Z,0.90
2022-09-10T02:06:14.305Z,0.90
2022-09-10T02:08:41.711Z,0.77
2022-09-10T02:11:11.813Z,0.70
2022-09-10T02:13:38.852Z,0.60
2022-09-10T02:16:08.471Z,0.80
2022-09-10T02:18:35.328Z,0.70
2022-09-10T02:21:03.217Z,0.75
2022-09-10T02:23:40.920Z,0.70
2022-09-10T02:26:07.467Z,0.88
2022-09-10T02:28:34.147Z,0.50
2022-09-10T02:31:01.694Z,0.45
2022-09-10T02:33:28.584Z,0.50
2022-09-10T02:35:55.195Z,0.52
2022-09-10T02:38:21.944Z,0.30
2022-09-10T02:40:51.855Z,0.70
2022-09-10T02:43:18.451Z,1.10
2022-09-10T02:45:45.106Z,1.02
2022-09-10T02:48:11.719Z,1.60
2022-09-10T02:50:39.067Z,1.35
2022-09-10T02:53:06.981Z,1.13
2022-09-10T02:55:33.551Z,1.55
2022-09-10T02:58:00.104Z,1.58
2022-09-10T03:00:26.645Z,3.17
2022-09-10T03:02:54.319Z,1.00
2022-09-10T03:05:20.891Z,2.30
2022-09-10T03:07:47.962Z,1.33
2022-09-10T03:10:14.489Z,1.30
2022-09-10T03:12:41.113Z,0.80
2022-09-10T03:15:08.203Z,1.85
2022-09-10T03:17:34.741Z,2.70
2022-09-10T03:20:01.267Z,1.35
2022-09-10T03:22:28.427Z,0.90
2022-09-10T03:24:55.101Z,1.10
2022-09-10T03:27:22.893Z,1.63
2022-09-10T03:29:49.480Z,1.40
2022-09-10T03:32:16.031Z,1.50
2022-09-10T03:34:42.981Z,1.50
2022-09-10T03:37:09.565Z,1.98
2022-09-10T03:39:36.145Z,3.35
2022-09-10T03:42:05.183Z,1.30
2022-09-10T03:44:33.532Z,1.48
2022-09-10T03:47:00.801Z,2.08
2022-09-10T03:49:28.024Z,2.13
2022-09-10T03:51:54.708Z,1.00
2022-09-10T03:54:21.399Z,1.00
2022-09-10T03:56:47.948Z,1.17
2022-09-10T03:59:14.921Z,1.10
2022-09-10T04:01:41.643Z,0.68
2022-09-10T04:04:08.485Z,0.60
2022-09-10T04:06:35.542Z,0.90
2022-09-10T04:09:02.255Z,0.65
2022-09-10T04:11:28.923Z,0.70
2022-09-10T04:13:56.391Z,0.82
2022-09-10T04:16:23.480Z,1.00
2022-09-10T04:18:51.135Z,0.88
2022-09-10T04:21:17.691Z,1.10
2022-09-10T04:23:45.661Z,1.27
2022-09-10T04:26:14.686Z,1.20
2022-09-10T04:28:41.781Z,1.25
2022-09-10T04:31:08.446Z,1.30
2022-09-10T04:33:35.649Z,1.65
2022-09-10T04:36:02.855Z,1.75
2022-09-10T04:38:32.795Z,1.90
2022-09-10T04:41:03.064Z,1.75
2022-09-10T04:43:29.596Z,2.22
2022-09-10T04:45:56.491Z,2.05
2022-09-10T04:48:24.138Z,1.80
2022-09-10T04:51:14.661Z,2.40
2022-09-10T04:53:40.965Z,2.05
2022-09-10T04:56:08.520Z,2.95
2022-09-10T04:58:38.678Z,1.98
2022-09-10T05:01:06.129Z,2.10
2022-09-10T05:03:32.805Z,1.75
2022-09-10T05:05:59.324Z,1.10
2022-09-10T05:08:25.908Z,1.40
2022-09-10T05:10:52.540Z,1.40
2022-09-10T05:13:19.191Z,1.00
2022-09-10T05:15:46.085Z,0.88
2022-09-10T05:18:12.781Z,1.25
2022-09-10T05:20:39.313Z,1.30
2022-09-10T05:23:05.850Z,1.65
2022-09-10T05:25:34.551Z,1.60
2022-09-10T05:28:01.586Z,1.85
2022-09-10T05:30:32.834Z,1.60
2022-09-10T05:33:03.245Z,2.35
2022-09-10T05:35:30.448Z,2.10
2022-09-10T05:37:57.640Z,1.95
2022-09-10T05:40:25.519Z,2.33
2022-09-10T05:42:52.980Z,2.63
2022-09-10T05:45:20.312Z,2.65
2022-09-10T05:47:47.490Z,2.47
2022-09-10T05:50:14.615Z,2.60
2022-09-10T05:52:41.268Z,2.78
2022-09-10T05:55:08.288Z,2.75
2022-09-10T05:57:35.498Z,2.40
2022-09-10T06:00:06.280Z,2.33
2022-09-10T06:02:33.533Z,2.75
2022-09-10T06:05:00.713Z,2.42
2022-09-10T06:07:28.378Z,2.47
2022-09-10T06:09:55.111Z,2.78
2022-09-10T06:12:21.763Z,2.40
2022-09-10T06:14:49.656Z,2.20
2022-09-10T06:17:19.085Z,1.90
2022-09-10T06:19:46.492Z,2.40
2022-09-10T06:22:13.638Z,2.40
2022-09-10T06:24:40.229Z,2.10
2022-09-10T06:27:06.904Z,1.70
2022-09-10T06:29:36.085Z,2.40
2022-09-10T06:32:03.263Z,2.15
2022-09-10T06:34:29.768Z,2.10
2022-09-10T06:36:58.233Z,2.28
2022-09-10T06:39:25.024Z,2.38
2022-09-10T06:41:53.276Z,2.30
2022-09-10T06:44:22.310Z,1.77
2022-09-10T06:47:39.385Z,2.00
2022-09-10T06:49:36.513Z,2.15
2022-09-10T06:52:03.110Z,1.58
2022-09-10T06:54:29.652Z,2.03
2022-09-10T06:56:56.212Z,2.40
2022-09-10T06:59:22.717Z,1.77
2022-09-10T07:01:49.478Z,2.20
2022-09-10T07:04:16.065Z,2.67
2022-09-10T07:06:42.815Z,2.13
2022-09-10T07:09:09.371Z,2.33
2022-09-10T07:11:40.667Z,2.00
2022-09-10T07:14:10.968Z,2.15
2022-09-10T07:16:41.702Z,2.22
2022-09-10T07:19:13.208Z,2.00
2022-09-10T07:21:39.818Z,2.10
2022-09-10T07:24:06.435Z,1.88
2022-09-10T07:26:33.289Z,1.70
2022-09-10T07:28:59.942Z,2.28
2022-09-10T07:31:32.243Z,1.80
2022-09-10T07:33:58.798Z,1.70
2022-09-10T07:36:25.542Z,2.15
2022-09-10T07:39:01.957Z,1.80
2022-09-10T07:41:29.850Z,1.77
2022-09-10T07:43:56.875Z,2.13
2022-09-10T07:46:25.582Z,2.53
2022-09-10T07:48:59.261Z,2.42
2022-09-10T07:51:27.422Z,1.77
2022-09-10T07:53:55.274Z,1.75
2022-09-10T07:56:23.293Z,1.83
2022-09-10T07:58:49.939Z,1.33
2022-09-10T08:01:16.586Z,1.75
2022-09-10T08:03:43.195Z,2.08
2022-09-10T08:06:10.080Z,1.92
2022-09-10T08:08:38.871Z,1.50
2022-09-10T08:11:11.738Z,2.08
2022-09-10T08:13:45.378Z,1.98
2022-09-10T08:16:14.772Z,1.70
2022-09-10T08:18:43.102Z,1.60
2022-09-10T08:21:09.718Z,2.05
2022-09-10T08:23:37.093Z,1.30
2022-09-10T08:26:05.317Z,1.40
2022-09-10T08:28:32.562Z,2.00
2022-09-10T08:31:07.775Z,1.50
2022-09-10T08:33:36.051Z,1.17
2022-09-10T08:36:03.507Z,1.00
2022-09-10T08:38:32.832Z,0.98
2022-09-10T08:41:01.249Z,1.52
2022-09-10T08:43:53.982Z,1.23
2022-09-10T08:46:29.435Z,1.38
2022-09-10T08:49:12.355Z,1.45
2022-09-10T08:51:44.483Z,1.80
2022-09-10T08:54:21.484Z,2.40
2022-09-10T08:56:48.734Z,1.88
2022-09-10T08:59:22.364Z,1.75
2022-09-10T09:01:56.700Z,2.00
2022-09-10T09:04:41.447Z,1.90
2022-09-10T09:07:16.969Z,2.25
2022-09-10T09:09:43.504Z,2.40
2022-09-10T09:12:28.772Z,2.30
2022-09-10T09:15:11.271Z,2.22
2022-09-10T09:18:01.466Z,2.10
2022-09-10T09:20:41.672Z,1.52
2022-09-10T09:23:32.977Z,1.83
2022-09-10T09:26:04.749Z,1.27
2022-09-10T09:28:36.644Z,2.40
2022-09-10T09:31:17.309Z,1.63
2022-09-10T09:33:45.420Z,2.13
2022-09-10T09:36:17.829Z,2.35
2022-09-10T09:38:48.875Z,2.22
2022-09-10T09:41:25.520Z,2.90
2022-09-10T09:44:19.554Z,2.53
2022-09-10T09:46:46.094Z,2.67
2022-09-10T09:49:16.626Z,3.10
2022-09-10T09:51:47.703Z,3.05
2022-09-10T09:57:19.560Z,3.05
2022-09-10T09:59:48.416Z,3.53
2022-09-10T10:02:20.152Z,2.63
2022-09-10T10:05:13.225Z,2.72
2022-09-10T10:07:39.766Z,2.67
2022-09-10T10:10:10.089Z,3.00
2022-09-10T10:12:41.296Z,2.50
2022-09-10T10:15:54.198Z,2.60
2022-09-10T10:18:29.392Z,2.17
2022-09-10T10:21:16.031Z,2.90
2022-09-10T10:23:43.635Z,2.35
2022-09-10T10:26:21.232Z,2.78
2022-09-10T10:29:07.955Z,3.15
2022-09-10T10:31:42.572Z,2.38
2022-09-10T10:34:15.251Z,2.20
2022-09-10T10:37:00.203Z,2.85
2022-09-10T10:40:01.150Z,2.63
2022-09-10T10:42:33.672Z,2.28
2022-09-10T10:45:10.689Z,2.40
2022-09-10T10:48:04.601Z,2.42
2022-09-10T10:50:40.549Z,1.90
2022-09-10T10:53:12.955Z,2.50
2022-09-10T10:55:45.625Z,2.38
2022-09-10T10:58:24.119Z,2.67
2022-09-10T11:01:02.569Z,2.50
2022-09-10T11:03:37.412Z,2.50
2022-09-10T11:06:08.302Z,2.33
2022-09-10T11:08:59.343Z,2.55
2022-09-10T11:11:37.509Z,2.60
2022-09-10T11:14:42.492Z,2.63
2022-09-10T11:17:13.696Z,2.65
2022-09-10T11:20:00.589Z,2.03
2022-09-10T11:22:40.282Z,2.10
2022-09-10T11:25:16.695Z,2.20
2022-09-10T11:27:49.136Z,2.60
2022-09-10T11:30:17.028Z,2.75
2022-09-10T11:32:51.311Z,2.30
2022-09-10T11:35:26.954Z,3.10
2022-09-10T11:38:18.560Z,2.38
2022-09-10T11:41:22.370Z,2.35
2022-09-10T11:44:07.337Z,2.53
2022-09-10T11:46:43.342Z,2.60
2022-09-10T11:49:42.468Z,3.33
2022-09-10T11:52:11.405Z,2.45
2022-09-10T11:54:39.013Z,2.30
2022-09-10T11:57:22.099Z,2.92
2022-09-10T12:00:15.788Z,2.30
2022-09-10T12:03:05.316Z,2.85
2022-09-10T12:06:02.089Z,2.35
2022-09-10T12:09:06.401Z,2.20
2022-09-10T12:11:47.975Z,2.50
2022-09-10T12:14:16.762Z,2.33
2022-09-10T12:16:57.350Z,2.40
2022-09-10T12:19:30.402Z,2.03
2022-09-10T12:22:09.331Z,2.60
2022-09-10T12:24:38.275Z,2.17
2022-09-10T12:27:06.302Z,2.13
2022-09-10T12:29:37.741Z,1.85
2022-09-10T12:32:19.491Z,2.25
2022-09-10T12:34:48.450Z,2.28
2022-09-10T12:37:28.186Z,1.70
2022-09-10T12:40:25.812Z,1.83
2022-09-10T12:42:56.957Z,1.67
2022-09-10T12:46:00.951Z,1.42
2022-09-10T12:48:27.699Z,1.02
2022-09-10T12:50:57.991Z,1.20
2022-09-10T12:53:43.931Z,1.40
2022-09-10T12:56:18.316Z,1.50
2022-09-10T12:59:06.958Z,0.93
2022-09-10T13:01:43.280Z,2.50
2022-09-10T13:04:26.044Z,3.42
2022-09-10T13:06:56.915Z,4.18
2022-09-10T13:09:29.891Z,4.60
2022-09-10T13:11:58.792Z,5.68
2022-09-10T13:14:32.385Z,5.85
2022-09-10T13:16:58.950Z,6.38
2022-09-10T13:19:25.420Z,7.45
2022-09-10T13:21:54.362Z,6.47
2022-09-10T13:24:59.817Z,7.07
2022-09-10T13:27:37.896Z,5.78
2022-09-10T13:30:21.916Z,4.97
2022-09-10T13:32:49.972Z,4.63
2022-09-10T13:35:23.227Z,4.05
2022-09-10T13:38:14.030Z,3.63
2022-09-10T13:41:18.727Z,2.83
2022-09-10T13:44:20.417Z,2.25
2022-09-10T13:49:16.742Z,2.63
2022-09-10T13:51:54.556Z,3.13
2022-09-10T13:54:31.164Z,2.60
2022-09-10T13:57:03.856Z,2.83
2022-09-10T13:59:33.289Z,3.20
2022-09-10T14:01:59.936Z,2.70
2022-09-10T14:04:35.525Z,3.05
2022-09-10T14:07:17.536Z,3.90
2022-09-10T14:09:48.609Z,3.72
2022-09-10T14:12:16.088Z,3.92
2022-09-10T14:14:45.259Z,3.55
2022-09-10T14:17:21.360Z,2.95
2022-09-10T14:19:57.911Z,3.50
2022-09-10T14:22:26.405Z,3.03
2022-09-10T14:24:57.282Z,3.30
2022-09-10T14:27:31.201Z,3.10
2022-09-10T14:30:26.463Z,3.55
2022-09-10T14:32:53.427Z,3.65
2022-09-10T14:35:44.940Z,3.88
2022-09-10T14:41:08.117Z,3.50
2022-09-10T14:43:40.481Z,3.00
2022-09-10T14:46:09.161Z,3.00
2022-09-10T14:48:37.586Z,2.90
2022-09-10T14:51:13.315Z,3.17
2022-09-10T14:53:41.350Z,2.80
2022-09-10T14:56:30.341Z,2.88
2022-09-10T14:58:59.502Z,2.97
2022-09-10T15:01:26.489Z,3.30
2022-09-10T15:03:53.331Z,3.42
2022-09-10T15:06:23.019Z,4.18
2022-09-10T15:08:52.855Z,5.10
2022-09-10T15:11:22.072Z,7.95
2022-09-10T15:13:49.479Z,7.18
2022-09-10T15:16:16.131Z,6.97
2022-09-10T15:18:42.768Z,7.38
2022-09-10T15:21:13.007Z,6.90
2022-09-10T15:23:39.679Z,4.95
2022-09-10T15:26:07.121Z,5.57
2022-09-10T15:28:33.857Z,4.72
2022-09-10T15:31:01.230Z,5.32
2022-09-10T15:33:28.590Z,5.20
2022-09-10T15:35:55.207Z,5.00
2022-09-10T15:38:21.905Z,5.45
2022-09-10T15:40:53.305Z,6.13
2022-09-10T15:43:20.103Z,6.50
2022-09-10T15:45:47.638Z,7.55
2022-09-10T15:48:14.244Z,9.05
2022-09-10T15:50:43.256Z,9.23
2022-09-10T15:53:12.033Z,10.05
2022-09-10T15:55:39.260Z,11.98
2022-09-10T15:58:06.351Z,12.15
2022-09-10T16:00:34.309Z,11.27
2022-09-10T16:03:00.955Z,12.23
2022-09-10T16:05:28.636Z,13.93
2022-09-10T16:07:55.212Z,13.35
2022-09-10T16:10:21.731Z,13.07
2022-09-10T16:12:48.533Z,13.45
2022-09-10T16:15:15.450Z,15.15
2022-09-10T16:17:42.246Z,15.18
2022-09-10T16:20:09.859Z,14.68
2022-09-10T16:22:36.891Z,13.13
2022-09-10T16:25:08.173Z,13.32
2022-09-10T16:30:01.476Z,13.73
2022-09-10T16:32:28.795Z,15.13
2022-09-10T16:34:55.757Z,14.45
2022-09-10T16:37:23.424Z,15.30
2022-09-10T16:39:50.014Z,15.73
2022-09-10T16:42:17.263Z,14.48
2022-09-10T16:44:43.773Z,14.18
2022-09-10T16:47:10.313Z,14.25
2022-09-10T16:49:36.849Z,13.93
2022-09-10T16:52:03.461Z,15.40
2022-09-10T16:54:31.913Z,15.30
2022-09-10T16:56:58.815Z,14.85
2022-09-10T16:59:25.831Z,13.48
2022-09-10T17:01:53.284Z,13.85
2022-09-10T17:04:26.320Z,14.70
2022-09-10T17:06:55.621Z,14.05
2022-09-10T17:09:22.646Z,13.43
2022-09-10T17:11:49.390Z,12.55
2022-09-10T17:14:15.922Z,11.80
2022-09-10T17:16:43.521Z,11.13
2022-09-10T17:19:23.446Z,12.10
2022-09-10T17:21:51.727Z,11.85
2022-09-10T17:24:20.968Z,12.27
2022-09-10T17:26:47.587Z,12.07
2022-09-10T17:29:18.946Z,11.55
2022-09-10T17:34:16.325Z,11.18
2022-09-10T17:36:45.293Z,12.82
2022-09-10T17:39:12.051Z,13.38
2022-09-10T17:41:39.625Z,13.00
2022-09-10T17:44:06.887Z,13.23
2022-09-10T17:46:35.393Z,13.93
2022-09-10T17:49:02.105Z,13.52
2022-09-10T17:51:30.699Z,12.10
2022-09-10T17:53:57.493Z,11.73
2022-09-10T17:56:25.937Z,11.50
2022-09-10T17:59:01.679Z,10.85
2022-09-10T18:01:37.772Z,11.85
2022-09-10T18:04:08.891Z,10.40
2022-09-10T18:06:36.406Z,10.75
2022-09-10T18:09:03.660Z,10.93
2022-09-10T18:11:33.201Z,10.32
2022-09-10T18:14:00.467Z,11.70
2022-09-10T18:16:29.745Z,11.30
2022-09-10T18:19:08.166Z,10.85
2022-09-10T18:21:38.136Z,12.63
2022-09-10T18:24:23.661Z,11.50
2022-09-10T18:26:53.276Z,10.77
2022-09-10T18:29:21.941Z,10.77
2022-09-10T18:31:51.468Z,12.55
2022-09-10T18:34:27.671Z,11.15
2022-09-10T18:36:59.526Z,10.68
2022-09-10T18:39:27.663Z,11.60
2022-09-10T18:41:54.847Z,10.50
2022-09-10T18:44:27.513Z,11.65
2022-09-10T18:46:54.233Z,11.23
2022-09-10T18:49:23.390Z,11.95
2022-09-10T18:51:52.105Z,11.48
2022-09-10T18:54:19.193Z,12.43
2022-09-10T18:56:48.070Z,13.05
2022-09-10T18:59:17.041Z,11.75
2022-09-10T19:01:45.621Z,11.68
2022-09-10T19:04:14.668Z,13.70
2022-09-10T19:06:43.452Z,13.45
2022-09-10T19:09:12.415Z,13.57
2022-09-10T19:11:41.201Z,13.55
2022-09-10T19:14:17.967Z,13.77
2022-09-10T19:16:46.766Z,14.82
2022-09-10T19:19:20.724Z,14.63
2022-09-10T19:21:49.619Z,16.80
2022-09-10T19:24:17.168Z,15.75
2022-09-10T19:26:44.184Z,16.38
2022-09-10T19:29:12.764Z,16.15
2022-09-10T19:31:41.001Z,17.25
2022-09-10T19:34:08.300Z,17.65
2022-09-10T19:36:35.866Z,19.08
2022-09-10T19:39:08.920Z,18.92
2022-09-10T19:41:39.028Z,18.25
2022-09-10T19:44:07.240Z,16.60
2022-09-10T19:46:36.539Z,17.83
2022-09-10T19:49:06.095Z,18.95
2022-09-10T19:51:35.568Z,17.23
2022-09-10T19:54:02.489Z,17.08
2022-09-10T19:56:34.406Z,17.90
2022-09-10T19:59:02.636Z,17.13
2022-09-10T20:01:31.446Z,18.13
2022-09-10T20:04:01.056Z,16.88
2022-09-10T20:06:29.971Z,17.33
2022-09-10T20:08:57.119Z,17.63
2022-09-10T20:11:32.317Z,16.10
2022-09-10T20:14:01.353Z,18.23
2022-09-10T20:16:28.388Z,16.65
2022-09-10T20:18:55.027Z,15.93
2022-09-10T20:21:28.293Z,17.05
2022-09-10T20:23:56.388Z,16.35
2022-09-10T20:26:24.357Z,16.73
2022-09-10T20:28:53.657Z,17.08
2022-09-10T20:31:21.135Z,15.85
2022-09-10T20:33:49.280Z,17.65
2022-09-10T20:36:17.087Z,16.65
2022-09-10T20:38:44.571Z,17.40
2022-09-10T20:41:14.393Z,18.30
2022-09-10T20:43:41.043Z,16.63
2022-09-10T20:46:16.050Z,17.92
2022-09-10T20:48:48.850Z,17.10
2022-09-10T20:51:17.814Z,17.83
2022-09-10T20:53:44.647Z,19.02
2022-09-10T20:56:21.887Z,18.85
2022-09-10T20:58:48.433Z,18.25
2022-09-10T21:01:18.887Z,18.60
2022-09-10T21:03:46.987Z,19.50
2022-09-10T21:06:15.523Z,18.25
2022-09-10T21:08:42.636Z,17.23
2022-09-10T21:11:15.206Z,16.13
2022-09-10T21:13:47.429Z,15.98
2022-09-10T21:16:17.125Z,16.60
2022-09-10T21:18:52.106Z,17.85
2022-09-10T21:21:22.823Z,15.80
2022-09-10T21:23:57.771Z,14.73
2022-09-10T21:26:29.035Z,15.65
2022-09-10T21:31:23.605Z,15.20
2022-09-10T21:33:50.358Z,15.68
2022-09-10T21:36:20.856Z,15.80
2022-09-10T21:38:55.992Z,15.43
2022-09-10T21:41:31.749Z,16.00
2022-09-10T21:43:59.869Z,14.45
2022-09-10T21:46:27.431Z,14.57
2022-09-10T21:48:53.997Z,14.43
2022-09-10T21:51:21.176Z,13.45
2022-09-10T21:53:48.396Z,14.57
2022-09-10T21:56:16.623Z,14.32
2022-09-10T21:58:44.615Z,13.35
2022-09-10T22:01:15.490Z,13.70
2022-09-10T22:03:42.178Z,14.93
2022-09-10T22:06:14.119Z,15.00
2022-09-10T22:08:45.695Z,15.15
2022-09-10T22:11:14.881Z,13.25
2022-09-10T22:13:43.045Z,16.25
2022-09-10T22:16:12.512Z,16.08
2022-09-10T22:18:39.813Z,17.60
2022-09-10T22:21:06.761Z,17.90
2022-09-10T22:23:36.059Z,19.27
2022-09-10T22:26:11.235Z,18.88
2022-09-10T22:28:38.407Z,19.10
2022-09-10T22:31:29.278Z,19.33
2022-09-10T22:34:01.609Z,18.58
2022-09-10T22:36:31.579Z,21.77
2022-09-10T22:38:59.543Z,21.23
2022-09-10T22:41:27.151Z,19.55
2022-09-10T22:43:54.236Z,22.27
2022-09-10T22:46:21.348Z,20.75
2022-09-10T22:48:47.934Z,19.83
2022-09-10T22:51:17.976Z,20.58
2022-09-10T22:53:45.298Z,21.52
2022-09-10T22:56:13.539Z,21.40
2022-09-10T22:58:41.010Z,20.42
2022-09-10T23:01:13.911Z,20.90
2022-09-10T23:03:41.567Z,21.05
2022-09-10T23:06:11.897Z,21.48
2022-09-10T23:08:40.281Z,20.98
2022-09-10T23:11:11.282Z,20.27
2022-09-10T23:13:38.428Z,20.25
2022-09-10T23:16:28.963Z,19.15
2022-09-10T23:18:57.400Z,21.20
2022-09-10T23:21:25.911Z,20.85
2022-09-10T23:23:54.703Z,22.15
2022-09-10T23:26:21.827Z,23.52
2022-09-10T23:28:48.506Z,21.63
2022-09-10T23:31:17.370Z,24.27
2022-09-10T23:33:46.700Z,24.10
2022-09-10T23:36:13.759Z,30.10
2022-09-10T23:38:41.535Z,30.02
2022-09-10T23:41:08.753Z,28.23
2022-09-10T23:43:35.611Z,28.50
2022-09-10T23:46:02.201Z,28.88
2022-09-10T23:48:29.661Z,25.80
2022-09-10T23:50:57.116Z,28.33
2022-09-10T23:53:25.301Z,26.55
2022-09-10T23:55:52.200Z,27.25
2022-09-10T23:58:19.932Z,26.15
